Time;durP1;ratioP1;P1;durP2;ratioP2;P2;SDS_P1;SDS_P2;PMS_P1;PMS_P2;Temp;Humidity;BMP_temperature;BMP_pressure;BME280_temperature;BME280_humidity;BME280_pressure;Samples;Min_cycle;Max_cycle;Signal;HPM_P1;HPM_P2
2021/06/30 00:00:16;;;;;;;12.73;9.48;;;16.20;99.90;;;;;;2106524;28;20123;-69
2021/06/30 00:01:18;;;;;;;14.40;9.60;;;16.20;99.90;;;;;;2123018;27;20058;-69
2021/06/30 00:02:18;;;;;;;18.20;9.00;;;16.20;99.90;;;;;;2119738;28;20051;-69
2021/06/30 00:03:19;;;;;;;12.35;9.70;;;16.20;99.90;;;;;;2111218;28;20792;-69
2021/06/30 00:04:20;;;;;;;16.48;10.13;;;16.20;99.90;;;;;;2111894;28;20020;-69
2021/06/30 00:05:21;;;;;;;15.57;8.88;;;16.20;99.90;;;;;;2112617;28;20506;-69
2021/06/30 00:06:21;;;;;;;14.85;8.88;;;16.20;99.90;;;;;;2108104;28;20051;-69
2021/06/30 00:07:22;;;;;;;11.70;8.45;;;16.20;99.90;;;;;;2104028;28;20545;-69
2021/06/30 00:08:23;;;;;;;12.70;8.52;;;16.10;99.90;;;;;;2110436;28;20034;-69
2021/06/30 00:09:24;;;;;;;11.68;8.25;;;16.20;99.90;;;;;;2108676;28;20016;-69
2021/06/30 00:10:25;;;;;;;13.25;9.50;;;16.10;99.90;;;;;;2107885;28;20028;-70
2021/06/30 00:11:26;;;;;;;11.73;8.65;;;16.10;99.90;;;;;;2107308;28;20019;-70
2021/06/30 00:12:27;;;;;;;12.55;8.75;;;16.10;99.90;;;;;;2111850;28;20016;-69
2021/06/30 00:13:28;;;;;;;10.25;7.95;;;16.20;99.90;;;;;;2099620;28;20617;-69
2021/06/30 00:14:29;;;;;;;10.88;8.35;;;16.20;99.90;;;;;;2098498;28;20028;-70
2021/06/30 00:15:31;;;;;;;11.77;8.23;;;16.20;99.90;;;;;;2103027;28;20054;-69
2021/06/30 00:16:33;;;;;;;12.07;8.88;;;16.10;99.90;;;;;;2100337;28;20575;-69
2021/06/30 00:17:33;;;;;;;12.90;9.30;;;16.10;99.90;;;;;;2098309;28;20596;-69
2021/06/30 00:18:34;;;;;;;14.45;10.07;;;16.20;99.90;;;;;;2097996;28;20035;-69
2021/06/30 00:19:36;;;;;;;15.90;10.77;;;16.20;99.90;;;;;;2097948;28;20045;-70
2021/06/30 00:20:37;;;;;;;23.77;12.75;;;16.10;99.90;;;;;;2096554;28;20027;-69
2021/06/30 00:21:38;;;;;;;22.08;12.80;;;16.20;99.90;;;;;;2101472;28;20028;-69
2021/06/30 00:22:40;;;;;;;20.08;12.73;;;16.10;99.90;;;;;;2110756;28;20466;-69
2021/06/30 00:23:41;;;;;;;24.83;13.57;;;16.10;99.90;;;;;;2107245;28;20028;-69
2021/06/30 00:24:42;;;;;;;22.00;13.75;;;16.10;99.90;;;;;;2102682;28;20411;-69
2021/06/30 00:25:43;;;;;;;19.33;13.68;;;16.10;99.90;;;;;;2101871;28;20020;-69
2021/06/30 00:26:44;;;;;;;23.10;14.45;;;16.10;99.90;;;;;;2105514;28;20479;-69
2021/06/30 00:27:44;;;;;;;23.38;15.40;;;16.10;99.90;;;;;;2097666;28;20112;-70
2021/06/30 00:28:45;;;;;;;26.15;14.48;;;16.10;99.90;;;;;;2105539;28;20538;-71
2021/06/30 00:29:46;;;;;;;23.08;14.88;;;16.10;99.90;;;;;;2106506;28;20027;-70
2021/06/30 00:30:46;;;;;;;21.65;14.93;;;16.10;99.90;;;;;;2106782;28;20077;-69
2021/06/30 00:31:48;;;;;;;24.30;15.48;;;16.00;99.90;;;;;;2105186;28;20030;-69
2021/06/30 00:32:48;;;;;;;25.40;15.68;;;16.00;99.90;;;;;;2106087;28;20032;-69
2021/06/30 00:33:49;;;;;;;24.95;15.95;;;16.10;99.90;;;;;;2106268;28;20149;-69
2021/06/30 00:34:50;;;;;;;23.67;15.30;;;16.00;99.90;;;;;;2096515;28;20033;-69
2021/06/30 00:35:51;;;;;;;25.45;16.33;;;16.00;99.90;;;;;;2106486;28;20034;-69
2021/06/30 00:36:51;;;;;;;29.17;16.13;;;16.00;99.90;;;;;;2101879;28;20026;-70
2021/06/30 00:37:52;;;;;;;21.45;15.52;;;16.00;99.90;;;;;;2104080;28;20024;-69
2021/06/30 00:38:52;;;;;;;22.77;16.15;;;16.00;99.90;;;;;;2101829;28;20535;-69
2021/06/30 00:39:53;;;;;;;24.88;16.58;;;16.00;99.90;;;;;;2102804;28;20418;-69
2021/06/30 00:40:54;;;;;;;26.15;16.42;;;16.00;99.90;;;;;;2105904;28;20454;-70
2021/06/30 00:41:57;;;;;;;24.33;17.13;;;15.90;99.90;;;;;;2106370;28;20024;-70
2021/06/30 00:42:58;;;;;;;29.23;17.65;;;16.00;99.90;;;;;;2098964;28;20047;-69
2021/06/30 00:43:59;;;;;;;25.73;16.92;;;15.90;99.90;;;;;;2096820;28;20020;-70
2021/06/30 00:44:59;;;;;;;24.60;17.40;;;15.90;99.90;;;;;;2097458;28;20067;-69
2021/06/30 00:46:00;;;;;;;25.40;16.92;;;15.90;99.90;;;;;;2101318;28;20020;-69
2021/06/30 00:47:02;;;;;;;27.27;18.00;;;15.90;99.90;;;;;;2105644;28;20134;-69
2021/06/30 00:48:03;;;;;;;26.27;17.42;;;15.90;99.90;;;;;;2102286;28;20016;-70
2021/06/30 00:49:06;;;;;;;24.48;16.70;;;15.90;99.90;;;;;;2105638;28;20039;-70
2021/06/30 00:50:07;;;;;;;28.27;17.17;;;15.90;99.90;;;;;;2106000;28;20012;-70
2021/06/30 00:51:08;;;;;;;27.40;17.73;;;15.90;99.90;;;;;;2106302;28;20020;-70
2021/06/30 00:52:08;;;;;;;28.83;17.02;;;15.90;99.90;;;;;;2106822;28;20467;-69
2021/06/30 00:53:09;;;;;;;27.30;16.95;;;15.90;99.90;;;;;;2105239;28;20414;-69
2021/06/30 00:54:10;;;;;;;27.92;17.63;;;15.90;99.90;;;;;;2105350;28;20016;-70
2021/06/30 00:55:11;;;;;;;28.77;17.92;;;15.90;99.90;;;;;;2103616;28;20143;-69
2021/06/30 00:56:13;;;;;;;26.80;17.55;;;15.90;99.90;;;;;;2105115;28;20498;-70
2021/06/30 00:57:17;;;;;;;28.55;17.25;;;15.90;99.90;;;;;;2097374;28;20029;-69
2021/06/30 00:58:18;;;;;;;28.67;17.25;;;15.90;99.90;;;;;;2097578;28;20035;-70
2021/06/30 00:59:19;;;;;;;33.92;18.27;;;15.90;99.90;;;;;;2097631;28;20032;-69
2021/06/30 01:00:20;;;;;;;24.63;17.02;;;15.90;99.90;;;;;;2098219;28;20044;-70
2021/06/30 01:01:21;;;;;;;25.58;17.50;;;15.90;99.90;;;;;;2097504;28;20111;-69
2021/06/30 01:02:23;;;;;;;34.55;17.90;;;15.90;99.90;;;;;;2098009;28;20016;-69
2021/06/30 01:03:23;;;;;;;25.77;16.63;;;15.90;99.90;;;;;;2101309;28;20081;-70
2021/06/30 01:04:24;;;;;;;31.33;18.15;;;15.90;99.90;;;;;;2103331;28;20258;-69
2021/06/30 01:05:25;;;;;;;30.58;18.33;;;15.90;99.90;;;;;;2097672;28;20009;-69
2021/06/30 01:06:25;;;;;;;28.42;17.67;;;15.90;99.90;;;;;;2095721;28;20500;-69
2021/06/30 01:07:26;;;;;;;29.35;18.08;;;15.90;99.90;;;;;;2097431;28;20075;-69
2021/06/30 01:08:28;;;;;;;30.80;18.08;;;15.90;99.90;;;;;;2098357;28;20112;-69
2021/06/30 01:09:30;;;;;;;28.88;18.50;;;15.90;99.90;;;;;;2105528;28;20519;-69
2021/06/30 01:10:30;;;;;;;26.52;17.95;;;15.90;99.90;;;;;;2106376;28;20024;-69
2021/06/30 01:11:31;;;;;;;25.08;17.73;;;15.90;99.90;;;;;;2099702;28;20043;-69
2021/06/30 01:12:32;;;;;;;29.58;18.40;;;15.90;99.90;;;;;;2097983;28;20020;-69
2021/06/30 01:13:33;;;;;;;26.98;17.77;;;15.90;99.90;;;;;;2104165;28;20123;-70
2021/06/30 01:14:36;;;;;;;31.08;18.30;;;15.90;99.90;;;;;;2104533;28;20031;-69
2021/06/30 01:15:57;;;;;;;26.85;18.90;;;15.80;99.90;;;;;;2097167;28;20032;-69
2021/06/30 01:16:59;;;;;;;29.70;18.48;;;15.80;99.90;;;;;;2103921;28;20020;-69
2021/06/30 01:18:00;;;;;;;27.70;18.23;;;15.80;99.90;;;;;;2105251;28;20750;-69
2021/06/30 01:19:01;;;;;;;28.90;18.40;;;15.80;99.90;;;;;;2106185;28;20055;-70
2021/06/30 01:20:03;;;;;;;30.80;18.33;;;15.80;99.90;;;;;;2101261;28;20020;-69
2021/06/30 01:21:05;;;;;;;;;;;15.70;99.90;;;;;;2104284;28;20115;-70
2021/06/30 01:22:07;;;;;;;28.38;17.52;;;15.80;99.90;;;;;;2097496;28;19908;-70
2021/06/30 01:23:10;;;;;;;27.88;18.08;;;15.70;99.90;;;;;;2103336;28;20012;-69
2021/06/30 01:24:11;;;;;;;29.08;17.52;;;15.70;99.90;;;;;;2097851;28;20028;-69
2021/06/30 01:25:12;;;;;;;26.88;18.38;;;15.60;99.90;;;;;;2096807;28;20020;-70
2021/06/30 01:26:13;;;;;;;27.13;18.75;;;15.60;99.90;;;;;;2097889;28;20050;-70
2021/06/30 01:27:17;;;;;;;25.35;17.88;;;15.60;99.90;;;;;;2104640;28;20991;-70
2021/06/30 01:28:19;;;;;;;29.73;18.23;;;15.60;99.90;;;;;;2101109;28;20023;-69
2021/06/30 01:29:22;;;;;;;29.38;19.30;;;15.60;99.90;;;;;;2097536;28;20016;-69
2021/06/30 01:30:23;;;;;;;31.13;18.88;;;15.60;99.90;;;;;;2102891;28;20523;-69
2021/06/30 01:31:24;;;;;;;29.90;17.77;;;15.60;99.90;;;;;;2104991;28;20103;-70
2021/06/30 01:32:25;;;;;;;30.30;18.27;;;15.60;99.90;;;;;;2097109;28;20025;-69
2021/06/30 01:33:26;;;;;;;29.33;18.25;;;15.60;99.90;;;;;;2098607;28;20033;-69
2021/06/30 01:34:26;;;;;;;26.67;17.85;;;15.60;99.90;;;;;;2097093;28;20048;-70
2021/06/30 01:35:28;;;;;;;34.13;19.05;;;15.60;99.90;;;;;;2099884;28;20035;-69
2021/06/30 01:36:29;;;;;;;35.85;19.65;;;15.60;99.90;;;;;;2097397;28;20017;-69
2021/06/30 01:37:29;;;;;;;32.38;19.55;;;15.60;99.90;;;;;;2097702;28;20476;-69
2021/06/30 01:38:31;;;;;;;26.65;18.17;;;15.60;99.90;;;;;;2100338;28;20085;-69
2021/06/30 01:39:31;;;;;;;28.98;19.33;;;15.60;99.90;;;;;;2105971;28;20111;-69
2021/06/30 01:40:32;;;;;;;29.20;18.52;;;15.60;99.90;;;;;;2111241;28;20020;-69
2021/06/30 01:41:33;;;;;;;32.47;19.73;;;15.60;99.90;;;;;;2105350;28;20028;-69
2021/06/30 01:42:34;;;;;;;28.85;18.70;;;15.60;99.90;;;;;;2105879;28;20020;-69
2021/06/30 01:43:34;;;;;;;32.83;18.98;;;15.60;99.90;;;;;;2105293;28;20122;-69
2021/06/30 01:44:35;;;;;;;31.38;18.95;;;15.70;99.90;;;;;;2104812;28;20111;-69
2021/06/30 01:45:36;;;;;;;31.30;18.92;;;15.70;99.90;;;;;;2102217;28;20134;-70
2021/06/30 01:46:37;;;;;;;30.60;19.90;;;15.70;99.90;;;;;;2105085;28;20024;-69
2021/06/30 01:47:38;;;;;;;36.15;20.63;;;15.70;99.90;;;;;;2105093;28;20094;-69
2021/06/30 01:48:47;;;;;;;30.13;19.27;;;15.70;99.90;;;;;;2106036;28;20461;-70
2021/06/30 01:49:47;;;;;;;32.22;19.50;;;15.80;99.90;;;;;;2105145;28;20111;-69
2021/06/30 01:50:49;;;;;;;38.30;20.65;;;15.80;99.90;;;;;;2105938;28;20016;-69
2021/06/30 01:51:50;;;;;;;34.55;20.63;;;15.80;99.90;;;;;;2105886;28;20024;-69
2021/06/30 01:52:50;;;;;;;41.42;22.05;;;15.70;99.90;;;;;;2105283;28;20028;-69
2021/06/30 01:53:56;;;;;;;32.30;21.48;;;15.80;99.90;;;;;;2104944;28;20028;-69
2021/06/30 01:54:56;;;;;;;40.55;21.83;;;15.70;99.90;;;;;;2101022;28;20110;-69
2021/06/30 01:55:57;;;;;;;38.30;21.10;;;15.70;99.90;;;;;;2104977;28;20597;-69
2021/06/30 01:56:58;;;;;;;37.75;21.55;;;15.80;99.90;;;;;;2105709;28;20381;-69
2021/06/30 01:57:58;;;;;;;35.35;21.83;;;15.80;99.90;;;;;;2105577;28;20028;-69
2021/06/30 01:59:10;;;;;;;37.97;22.98;;;15.70;99.90;;;;;;2105905;28;20074;-69
2021/06/30 02:00:13;;;;;;;39.80;23.17;;;15.80;99.90;;;;;;2096809;28;20029;-69
2021/06/30 02:01:14;;;;;;;38.90;22.30;;;15.80;99.90;;;;;;2100177;28;20147;-69
2021/06/30 02:02:15;;;;;;;41.08;22.77;;;15.80;99.90;;;;;;2105831;28;20028;-69
2021/06/30 02:03:15;;;;;;;38.00;22.10;;;15.70;99.90;;;;;;2097319;28;20017;-69
2021/06/30 02:04:16;;;;;;;39.40;21.30;;;15.70;99.90;;;;;;2100977;28;20032;-69
2021/06/30 02:05:19;;;;;;;37.83;22.15;;;15.70;99.90;;;;;;2105045;28;20103;-69
2021/06/30 02:06:19;;;;;;;35.72;21.60;;;15.70;99.90;;;;;;2101207;28;20016;-70
2021/06/30 02:07:20;;;;;;;32.30;19.67;;;15.70;99.90;;;;;;2097265;28;20051;-69
2021/06/30 02:08:21;;;;;;;35.97;20.60;;;15.60;99.90;;;;;;2096329;28;20020;-69
2021/06/30 02:09:22;;;;;;;30.73;21.25;;;15.60;99.90;;;;;;2097373;28;20020;-69
2021/06/30 02:10:24;;;;;;;33.33;19.88;;;15.70;99.90;;;;;;2105180;28;20016;-69
2021/06/30 02:11:25;;;;;;;;;;;15.60;99.90;;;;;;2105751;28;20019;-69
2021/06/30 02:12:26;;;;;;;29.65;19.90;;;15.60;99.90;;;;;;2105912;28;19952;-69
2021/06/30 02:13:26;;;;;;;30.55;20.60;;;15.60;99.90;;;;;;2101385;28;20028;-70
2021/06/30 02:14:27;;;;;;;33.80;19.75;;;15.60;99.90;;;;;;2098573;28;20024;-69
2021/06/30 02:15:30;;;;;;;29.95;18.90;;;15.60;99.90;;;;;;2097348;28;20032;-69
2021/06/30 02:16:31;;;;;;;31.17;19.60;;;15.60;99.90;;;;;;2099565;28;20029;-69
2021/06/30 02:17:32;;;;;;;32.30;18.67;;;15.50;99.90;;;;;;2096212;28;20032;-69
2021/06/30 02:18:33;;;;;;;30.02;20.30;;;15.60;99.90;;;;;;2097198;28;20024;-69
2021/06/30 02:19:33;;;;;;;30.25;19.98;;;15.60;99.90;;;;;;2103683;28;20028;-69
2021/06/30 02:20:34;;;;;;;29.20;19.67;;;15.60;99.90;;;;;;2102566;28;20464;-69
2021/06/30 02:21:35;;;;;;;36.78;19.92;;;15.60;99.90;;;;;;2104290;28;20372;-69
2021/06/30 02:22:38;;;;;;;30.65;21.23;;;15.60;99.90;;;;;;2101705;28;20519;-69
2021/06/30 02:23:39;;;;;;;30.48;19.95;;;15.60;99.90;;;;;;2097126;28;20017;-69
2021/06/30 02:24:40;;;;;;;30.98;20.63;;;15.60;99.90;;;;;;2097816;28;20545;-69
2021/06/30 02:25:40;;;;;;;29.23;19.98;;;15.60;99.90;;;;;;2105141;28;20059;-69
2021/06/30 02:26:41;;;;;;;31.27;19.50;;;15.60;99.90;;;;;;2104579;28;20102;-69
2021/06/30 02:27:42;;;;;;;34.20;20.42;;;15.60;99.90;;;;;;2105783;28;20099;-69
2021/06/30 02:28:43;;;;;;;32.00;20.67;;;15.60;99.90;;;;;;2099428;28;20028;-70
2021/06/30 02:29:43;;;;;;;31.98;20.52;;;15.70;99.90;;;;;;2095725;28;20563;-69
2021/06/30 02:30:44;;;;;;;30.00;20.92;;;15.70;99.90;;;;;;2101382;28;20024;-69
2021/06/30 02:31:45;;;;;;;35.10;20.65;;;15.70;99.90;;;;;;2099819;28;20024;-69
2021/06/30 02:32:46;;;;;;;30.02;21.45;;;15.70;99.90;;;;;;2105778;28;20028;-69
2021/06/30 02:33:46;;;;;;;27.70;19.60;;;15.70;99.90;;;;;;2105476;28;20024;-69
2021/06/30 02:34:47;;;;;;;29.17;20.50;;;15.70;99.90;;;;;;2095508;28;20386;-70
2021/06/30 02:35:48;;;;;;;27.63;19.60;;;15.70;99.90;;;;;;2105450;28;20077;-69
2021/06/30 02:36:49;;;;;;;29.20;19.33;;;15.70;99.90;;;;;;2105262;28;20109;-69
2021/06/30 02:37:51;;;;;;;30.00;21.15;;;15.70;99.90;;;;;;2102366;28;20680;-69
2021/06/30 02:38:52;;;;;;;31.95;19.73;;;15.70;99.90;;;;;;2103008;28;20021;-69
2021/06/30 02:39:52;;;;;;;31.63;20.45;;;15.70;99.90;;;;;;2107474;28;20069;-69
2021/06/30 02:40:54;;;;;;;36.67;20.27;;;15.70;99.90;;;;;;2108748;28;20031;-69
2021/06/30 02:41:55;;;;;;;31.75;19.75;;;15.70;99.90;;;;;;2104988;28;20020;-69
2021/06/30 02:42:56;;;;;;;31.48;21.63;;;15.70;99.90;;;;;;2098488;28;20028;-69
2021/06/30 02:43:57;;;;;;;33.22;21.30;;;15.70;99.90;;;;;;2097605;28;20058;-69
2021/06/30 02:44:58;;;;;;;35.90;20.73;;;15.70;99.90;;;;;;2103365;28;20607;-69
2021/06/30 02:45:59;;;;;;;30.95;20.33;;;15.70;99.90;;;;;;2100989;28;20036;-69
2021/06/30 02:47:00;;;;;;;33.42;21.30;;;15.70;99.90;;;;;;2096607;28;20029;-69
2021/06/30 02:48:00;;;;;;;32.53;20.58;;;15.70;99.90;;;;;;2094324;28;20016;-69
2021/06/30 02:49:01;;;;;;;31.67;22.33;;;15.70;99.90;;;;;;2095082;28;20035;-69
2021/06/30 02:50:03;;;;;;;33.28;21.15;;;15.70;99.90;;;;;;2096662;28;20016;-69
2021/06/30 02:51:04;;;;;;;36.35;22.25;;;15.70;99.90;;;;;;2100141;28;20047;-69
2021/06/30 02:52:05;;;;;;;33.67;21.65;;;15.70;99.90;;;;;;2105078;28;20199;-69
2021/06/30 02:53:06;;;;;;;28.13;21.10;;;15.70;99.90;;;;;;2097803;28;20119;-70
2021/06/30 02:54:07;;;;;;;31.23;20.98;;;15.70;99.90;;;;;;2100137;28;20025;-69
2021/06/30 02:55:09;;;;;;;32.78;21.92;;;15.70;99.90;;;;;;2105251;28;20027;-69
2021/06/30 02:56:09;;;;;;;35.85;22.00;;;15.70;99.90;;;;;;2105352;28;20025;-69
2021/06/30 02:57:10;;;;;;;34.20;21.55;;;15.70;99.90;;;;;;2105618;28;20151;-69
2021/06/30 02:58:11;;;;;;;39.30;21.48;;;15.70;99.90;;;;;;2105146;28;20053;-69
2021/06/30 02:59:12;;;;;;;33.55;21.70;;;15.70;99.90;;;;;;2104003;28;20019;-69
2021/06/30 03:00:20;;;;;;;37.13;22.10;;;15.70;99.90;;;;;;2097360;28;20020;-69
2021/06/30 03:01:20;;;;;;;37.80;22.45;;;15.70;99.90;;;;;;2096896;28;20082;-69
2021/06/30 03:02:21;;;;;;;33.15;22.60;;;15.70;99.90;;;;;;2095309;28;20115;-69
2021/06/30 03:03:22;;;;;;;38.38;22.20;;;15.70;99.90;;;;;;2097172;28;20017;-69
2021/06/30 03:04:22;;;;;;;33.88;20.95;;;15.70;99.90;;;;;;2096158;28;20020;-70
2021/06/30 03:05:23;;;;;;;36.28;22.25;;;15.70;99.90;;;;;;2097206;28;20131;-69
2021/06/30 03:06:24;;;;;;;35.35;21.35;;;15.70;99.90;;;;;;2096458;28;20095;-69
2021/06/30 03:07:25;;;;;;;35.88;23.08;;;15.70;99.90;;;;;;2096595;28;20017;-70
2021/06/30 03:08:25;;;;;;;38.63;23.95;;;15.70;99.90;;;;;;2103039;28;20693;-69
2021/06/30 03:09:26;;;;;;;36.03;22.48;;;15.80;99.90;;;;;;2105175;28;20560;-69
2021/06/30 03:10:27;;;;;;;36.72;23.45;;;15.70;99.90;;;;;;2105588;28;20520;-69
2021/06/30 03:11:27;;;;;;;37.35;23.08;;;15.80;99.90;;;;;;2100317;28;20027;-69
2021/06/30 03:12:28;;;;;;;37.20;24.25;;;15.70;99.90;;;;;;2101486;28;20074;-70
2021/06/30 03:13:29;;;;;;;34.97;22.58;;;15.80;99.90;;;;;;2099665;28;20017;-69
2021/06/30 03:14:30;;;;;;;37.13;23.90;;;15.80;99.90;;;;;;2097775;28;20077;-69
2021/06/30 03:15:30;;;;;;;34.42;23.33;;;15.70;99.90;;;;;;2101790;28;20028;-69
2021/06/30 03:16:31;;;;;;;34.72;23.20;;;15.80;99.90;;;;;;2104119;28;20044;-69
2021/06/30 03:17:34;;;;;;;37.17;24.05;;;15.80;99.90;;;;;;2105210;28;20020;-69
2021/06/30 03:18:35;;;;;;;36.25;22.33;;;15.70;99.90;;;;;;2098419;28;20564;-70
2021/06/30 03:19:35;;;;;;;42.95;23.80;;;15.80;99.90;;;;;;2097609;28;20025;-69
2021/06/30 03:20:36;;;;;;;40.20;24.08;;;15.80;99.90;;;;;;2101147;28;20043;-69
2021/06/30 03:21:37;;;;;;;35.75;23.38;;;15.80;99.90;;;;;;2096985;28;20013;-69
2021/06/30 03:22:39;;;;;;;33.53;22.60;;;15.80;99.90;;;;;;2099701;28;20020;-70
2021/06/30 03:23:40;;;;;;;;;;;15.80;99.90;;;;;;2105398;28;20024;-69
2021/06/30 03:24:40;;;;;;;40.75;22.88;;;15.80;99.90;;;;;;2104432;28;19998;-69
2021/06/30 03:25:41;;;;;;;32.58;22.27;;;15.80;99.90;;;;;;2097260;28;20384;-69
2021/06/30 03:26:42;;;;;;;31.98;22.20;;;15.80;99.90;;;;;;2094951;28;20020;-70
2021/06/30 03:27:43;;;;;;;37.53;22.48;;;15.80;99.90;;;;;;2101292;28;20048;-69
2021/06/30 03:28:44;;;;;;;34.45;22.25;;;15.80;99.90;;;;;;2096676;28;20027;-69
2021/06/30 03:29:44;;;;;;;33.60;22.95;;;15.80;99.90;;;;;;2096916;28;20100;-69
2021/06/30 03:30:45;;;;;;;40.30;23.58;;;15.80;99.90;;;;;;2096922;28;20029;-70
2021/06/30 03:31:46;;;;;;;35.13;22.55;;;15.80;99.90;;;;;;2099867;28;20024;-69
2021/06/30 03:32:47;;;;;;;34.58;23.38;;;15.80;99.90;;;;;;2099443;28;20028;-69
2021/06/30 03:33:48;;;;;;;41.55;23.95;;;15.80;99.90;;;;;;2103445;28;20032;-69
2021/06/30 03:34:48;;;;;;;42.65;24.65;;;15.80;99.90;;;;;;2104326;28;20044;-69
2021/06/30 03:35:49;;;;;;;40.47;24.83;;;15.80;99.90;;;;;;2097150;28;20031;-69
2021/06/30 03:36:49;;;;;;;42.55;24.77;;;15.80;99.90;;;;;;2099612;28;20024;-69
2021/06/30 03:37:50;;;;;;;35.95;23.27;;;15.80;99.90;;;;;;2105546;28;20028;-69
2021/06/30 03:38:51;;;;;;;45.03;25.15;;;15.80;99.90;;;;;;2103745;28;20031;-69
2021/06/30 03:39:52;;;;;;;37.97;24.97;;;15.80;99.90;;;;;;2107124;28;20016;-70
2021/06/30 03:40:53;;;;;;;42.90;25.55;;;15.80;99.90;;;;;;2109346;28;20262;-69
2021/06/30 03:41:53;;;;;;;39.15;24.77;;;15.80;99.90;;;;;;2104615;28;20070;-69
2021/06/30 03:42:54;;;;;;;39.20;25.35;;;15.80;99.90;;;;;;2101568;28;20031;-69
2021/06/30 03:43:55;;;;;;;46.28;26.60;;;15.80;99.90;;;;;;2097721;28;20052;-68
2021/06/30 03:44:55;;;;;;;43.50;25.70;;;15.80;99.90;;;;;;2099918;28;20052;-70
2021/06/30 03:45:56;;;;;;;37.97;25.40;;;15.80;99.90;;;;;;2100652;28;20020;-70
2021/06/30 03:46:57;;;;;;;46.50;26.27;;;15.80;99.90;;;;;;2100787;28;20022;-70
2021/06/30 03:47:58;;;;;;;39.53;24.83;;;15.80;99.90;;;;;;2097705;28;20161;-69
2021/06/30 03:48:58;;;;;;;44.28;26.10;;;15.80;99.90;;;;;;2094271;28;20409;-69
2021/06/30 03:49:59;;;;;;;46.40;26.73;;;15.80;99.90;;;;;;2106441;28;20022;-69
2021/06/30 03:51:00;;;;;;;44.03;26.33;;;15.80;99.90;;;;;;2101883;28;20050;-69
2021/06/30 03:52:01;;;;;;;40.90;26.50;;;15.80;99.90;;;;;;2106989;28;20028;-69
2021/06/30 03:53:01;;;;;;;44.47;26.92;;;15.80;99.90;;;;;;2100659;28;20026;-70
2021/06/30 03:54:03;;;;;;;40.28;26.00;;;15.80;99.90;;;;;;2098168;28;20480;-69
2021/06/30 03:55:04;;;;;;;41.28;26.45;;;15.80;99.90;;;;;;2106977;28;20402;-69
2021/06/30 03:56:05;;;;;;;45.53;26.98;;;15.80;99.90;;;;;;2103194;28;20032;-69
2021/06/30 03:57:06;;;;;;;49.75;27.98;;;15.80;99.90;;;;;;2106242;28;20052;-69
2021/06/30 03:58:06;;;;;;;47.92;27.55;;;15.80;99.90;;;;;;2106163;28;20379;-69
2021/06/30 03:59:07;;;;;;;45.28;27.05;;;15.80;99.90;;;;;;2106101;28;20094;-69
2021/06/30 04:00:09;;;;;;;40.47;26.27;;;15.80;99.90;;;;;;2098379;28;20021;-69
2021/06/30 04:01:09;;;;;;;41.38;26.33;;;15.80;99.90;;;;;;2101496;28;20024;-70
2021/06/30 04:02:11;;;;;;;43.15;25.50;;;15.80;99.90;;;;;;2100420;28;20403;-70
2021/06/30 04:03:11;;;;;;;50.65;27.35;;;15.80;99.90;;;;;;2104167;28;20031;-70
2021/06/30 04:04:13;;;;;;;43.65;27.60;;;15.80;99.90;;;;;;2106116;28;20044;-68
2021/06/30 04:05:14;;;;;;;42.63;26.75;;;15.80;99.90;;;;;;2106899;28;20077;-69
2021/06/30 04:06:15;;;;;;;45.78;26.17;;;15.80;99.90;;;;;;2102585;28;20024;-69
2021/06/30 04:07:15;;;;;;;45.80;27.20;;;15.80;99.90;;;;;;2097842;28;20023;-69
2021/06/30 04:08:16;;;;;;;45.33;26.55;;;15.80;99.90;;;;;;2098327;28;20016;-70
2021/06/30 04:09:17;;;;;;;45.55;26.88;;;15.80;99.90;;;;;;2097865;28;20048;-69
2021/06/30 04:10:18;;;;;;;40.70;26.27;;;15.80;99.90;;;;;;2106929;28;20020;-69
2021/06/30 04:11:18;;;;;;;44.42;27.55;;;15.80;99.90;;;;;;2100102;28;20071;-69
2021/06/30 04:12:21;;;;;;;45.92;27.92;;;15.80;99.90;;;;;;2100488;28;20025;-69
2021/06/30 04:13:21;;;;;;;46.28;26.75;;;15.80;99.90;;;;;;2098023;28;20021;-69
2021/06/30 04:14:23;;;;;;;42.35;25.70;;;15.80;99.90;;;;;;2097510;28;20024;-69
2021/06/30 04:15:23;;;;;;;47.70;26.95;;;15.80;99.90;;;;;;2097906;28;20024;-70
2021/06/30 04:16:24;;;;;;;49.63;28.77;;;15.80;99.90;;;;;;2098828;28;20020;-69
2021/06/30 04:17:25;;;;;;;40.75;26.52;;;15.80;99.90;;;;;;2105629;28;20024;-70
2021/06/30 04:18:25;;;;;;;42.80;27.25;;;15.80;99.90;;;;;;2101079;28;20099;-69
2021/06/30 04:19:26;;;;;;;45.25;26.48;;;15.80;99.90;;;;;;2098217;28;20028;-69
2021/06/30 04:20:27;;;;;;;43.33;26.98;;;15.80;99.90;;;;;;2097523;28;20109;-69
2021/06/30 04:21:27;;;;;;;45.10;26.10;;;15.80;99.90;;;;;;2099418;28;20052;-69
2021/06/30 04:22:28;;;;;;;44.28;27.17;;;15.80;99.90;;;;;;2106762;28;20031;-70
2021/06/30 04:23:29;;;;;;;39.25;25.25;;;15.80;99.90;;;;;;2099840;28;20063;-70
2021/06/30 04:24:29;;;;;;;41.88;27.13;;;15.80;99.90;;;;;;2100748;28;20101;-69
2021/06/30 04:25:30;;;;;;;44.65;25.20;;;15.80;99.90;;;;;;2103347;28;20028;-69
2021/06/30 04:26:31;;;;;;;42.40;26.05;;;15.80;99.90;;;;;;2098000;28;20098;-70
2021/06/30 04:27:32;;;;;;;44.45;25.65;;;15.80;99.90;;;;;;2098351;28;20029;-69
2021/06/30 04:28:33;;;;;;;48.75;27.23;;;15.80;99.90;;;;;;2102439;28;20103;-69
2021/06/30 04:29:34;;;;;;;39.40;24.88;;;15.80;99.90;;;;;;2106589;28;20506;-70
2021/06/30 04:30:34;;;;;;;44.92;26.73;;;15.80;99.90;;;;;;2098377;28;20051;-70
2021/06/30 04:31:35;;;;;;;48.33;26.00;;;15.80;99.90;;;;;;2098677;28;20027;-69
2021/06/30 04:32:37;;;;;;;44.45;26.10;;;15.80;99.90;;;;;;2103848;28;20042;-69
2021/06/30 04:33:38;;;;;;;52.65;26.48;;;15.90;99.90;;;;;;2099979;28;20024;-69
2021/06/30 04:34:38;;;;;;;45.00;26.65;;;15.80;99.90;;;;;;2105693;28;20028;-70
2021/06/30 04:35:39;;;;;;;41.00;26.88;;;15.90;99.90;;;;;;2105319;28;20046;-69
2021/06/30 04:36:39;;;;;;;39.63;24.90;;;15.80;99.90;;;;;;2105729;28;20651;-69
2021/06/30 04:37:40;;;;;;;49.88;24.75;;;15.90;99.90;;;;;;2106151;28;20550;-69
2021/06/30 04:38:41;;;;;;;44.88;24.65;;;15.90;99.90;;;;;;2101854;28;20017;-69
2021/06/30 04:39:42;;;;;;;41.00;25.73;;;15.90;99.90;;;;;;2099802;28;20031;-69
2021/06/30 04:40:44;;;;;;;40.40;25.20;;;15.90;99.90;;;;;;2107588;28;20027;-69
2021/06/30 04:41:45;;;;;;;45.80;26.33;;;15.90;99.90;;;;;;2105612;28;20023;-69
2021/06/30 04:42:45;;;;;;;44.33;25.55;;;15.90;99.90;;;;;;2105627;28;20574;-69
2021/06/30 04:43:46;;;;;;;38.78;25.63;;;15.90;99.90;;;;;;2106502;28;20391;-69
2021/06/30 04:44:47;;;;;;;41.42;26.05;;;15.90;99.90;;;;;;2105259;28;20020;-70
2021/06/30 04:45:48;;;;;;;44.78;25.00;;;15.90;99.90;;;;;;2097241;28;20032;-69
2021/06/30 04:46:48;;;;;;;42.25;24.92;;;15.90;99.90;;;;;;2092625;28;20590;-70
2021/06/30 04:47:49;;;;;;;43.63;26.70;;;15.90;99.90;;;;;;2102038;28;20077;-69
2021/06/30 04:48:50;;;;;;;44.40;26.65;;;15.90;99.90;;;;;;2097931;28;20024;-70
2021/06/30 04:49:51;;;;;;;46.80;27.55;;;15.90;99.90;;;;;;2097260;28;20036;-69
2021/06/30 04:50:52;;;;;;;48.17;25.92;;;15.90;99.90;;;;;;2099217;28;20123;-70
2021/06/30 04:51:52;;;;;;;44.33;25.70;;;15.90;99.90;;;;;;2106484;28;20079;-69
2021/06/30 04:52:53;;;;;;;48.38;26.58;;;15.90;99.90;;;;;;2106323;28;20023;-69
2021/06/30 04:53:54;;;;;;;45.20;26.40;;;15.90;99.90;;;;;;2102742;28;20031;-70
2021/06/30 04:54:54;;;;;;;41.72;25.55;;;15.90;99.90;;;;;;2105474;28;20024;-69
2021/06/30 04:55:55;;;;;;;40.65;25.40;;;15.90;99.90;;;;;;2105681;28;20059;-69
2021/06/30 04:56:56;;;;;;;42.97;25.50;;;15.90;99.90;;;;;;2106391;28;20095;-69
2021/06/30 04:57:56;;;;;;;42.72;26.67;;;15.90;99.90;;;;;;2100963;28;20028;-69
2021/06/30 04:58:57;;;;;;;42.08;26.27;;;15.90;99.90;;;;;;2097782;28;20020;-70
2021/06/30 04:59:58;;;;;;;45.28;26.17;;;15.90;99.90;;;;;;2096168;28;20029;-69
2021/06/30 05:00:58;;;;;;;43.42;24.67;;;15.90;99.90;;;;;;2100280;28;20112;-69
2021/06/30 05:01:59;;;;;;;51.47;25.55;;;15.90;99.90;;;;;;2104970;28;20085;-71
2021/06/30 05:03:00;;;;;;;43.45;25.10;;;15.90;99.90;;;;;;2101479;28;20034;-69
2021/06/30 05:04:01;;;;;;;52.20;27.52;;;15.90;99.90;;;;;;2097721;28;20035;-69
2021/06/30 05:05:03;;;;;;;47.33;26.33;;;15.90;99.90;;;;;;2103823;28;20035;-69
2021/06/30 05:06:03;;;;;;;40.58;25.75;;;15.90;99.90;;;;;;2104007;28;20028;-69
2021/06/30 05:07:04;;;;;;;46.75;26.20;;;15.90;99.90;;;;;;2097420;28;20025;-69
2021/06/30 05:08:05;;;;;;;49.92;26.33;;;15.90;99.90;;;;;;2101777;28;20016;-70
2021/06/30 05:09:06;;;;;;;46.80;26.70;;;15.90;99.90;;;;;;2106272;28;20016;-69
2021/06/30 05:10:07;;;;;;;43.90;25.58;;;15.90;99.90;;;;;;2096591;28;20042;-69